createdAt,value
2018-01-25T00:00:06.575Z,67.12
2018-01-25T00:00:30.332Z,67.17
2018-01-25T00:00:54.052Z,67.22
2018-01-25T00:01:18.075Z,67.26
2018-01-25T00:01:42.107Z,67.28
2018-01-25T00:02:06.125Z,67.28
2018-01-25T00:02:30.181Z,67.32
2018-01-25T00:02:53.925Z,67.35
2018-01-25T00:03:17.675Z,67.44
2018-01-25T00:03:41.580Z,67.52
2018-01-25T00:04:05.331Z,67.53
2018-01-25T00:04:29.089Z,67.55
2018-01-25T00:04:53.115Z,67.57
2018-01-25T00:05:16.861Z,67.63
2018-01-25T00:05:40.613Z,67.67
2018-01-25T00:06:04.013Z,67.73
2018-01-25T00:06:27.946Z,67.79
2018-01-25T00:06:51.989Z,67.89
2018-01-25T00:07:16.018Z,68.03
2018-01-25T00:07:40.051Z,68.16
2018-01-25T00:08:03.520Z,68.31
2018-01-25T00:08:26.912Z,68.48
2018-01-25T00:08:50.958Z,68.57
2018-01-25T00:09:14.977Z,68.68
2018-01-25T00:09:39.015Z,68.88
2018-01-25T00:10:03.059Z,69.02
2018-01-25T00:10:26.844Z,69.12
2018-01-25T00:10:50.299Z,69.21
2018-01-25T00:11:14.037Z,69.23
2018-01-25T00:11:37.791Z,69.36
2018-01-25T00:12:01.525Z,69.40
2018-01-25T00:12:25.281Z,69.42
2018-01-25T00:12:49.047Z,69.47
2018-01-25T00:13:12.781Z,69.53
2018-01-25T00:13:36.273Z,69.55
2018-01-25T00:14:00.752Z,69.63
2018-01-25T00:14:24.200Z,69.72
2018-01-25T00:14:47.938Z,69.77
2018-01-25T00:15:12.000Z,69.87
2018-01-25T00:15:35.766Z,69.87
2018-01-25T00:15:59.235Z,69.89
2018-01-25T00:16:23.088Z,69.94
2018-01-25T00:16:46.842Z,69.99
2018-01-25T00:17:10.874Z,70.12
2018-01-25T00:17:34.910Z,70.19
2018-01-25T00:17:58.945Z,70.27
2018-01-25T00:18:22.411Z,70.35
2018-01-25T00:18:46.454Z,70.47
2018-01-25T00:19:10.218Z,70.61
2018-01-25T00:19:33.967Z,70.79
2018-01-25T00:19:57.753Z,70.92
2018-01-25T00:20:21.265Z,71.08
2018-01-25T00:20:44.998Z,71.28
2018-01-25T00:21:08.776Z,71.35
2018-01-25T00:21:32.232Z,71.40
2018-01-25T00:21:55.999Z,71.47
2018-01-25T00:22:19.778Z,71.59
2018-01-25T00:22:43.227Z,71.72
2018-01-25T00:23:07.049Z,71.78
2018-01-25T00:23:30.807Z,71.83
2018-01-25T00:23:54.866Z,71.92
2018-01-25T00:24:18.913Z,71.98
2018-01-25T00:24:42.366Z,72.06
2018-01-25T00:25:06.132Z,72.10
2018-01-25T00:25:29.890Z,72.11
2018-01-25T00:25:53.892Z,72.10
2018-01-25T00:26:18.368Z,72.12
2018-01-25T00:26:41.991Z,72.14
2018-01-25T00:27:05.749Z,72.20
2018-01-25T00:27:29.811Z,72.26
2018-01-25T00:27:53.902Z,72.27
2018-01-25T00:28:17.692Z,72.31
2018-01-25T00:28:41.135Z,72.36
2018-01-25T00:29:04.932Z,72.50
2018-01-25T00:29:28.839Z,72.58
2018-01-25T00:29:52.284Z,72.62
2018-01-25T00:30:16.104Z,72.67
2018-01-25T00:30:39.843Z,72.79
2018-01-25T00:31:03.589Z,72.91
2018-01-25T00:31:27.358Z,72.98
2018-01-25T00:31:51.117Z,73.13
2018-01-25T00:32:14.895Z,73.18
2018-01-25T00:32:38.687Z,73.23
2018-01-25T00:33:02.727Z,73.25
2018-01-25T00:33:26.794Z,73.29
2018-01-25T00:33:50.564Z,73.35
2018-01-25T00:34:14.348Z,73.41
2018-01-25T00:34:38.096Z,73.47
2018-01-25T00:35:01.847Z,73.41
2018-01-25T00:35:25.595Z,73.30
2018-01-25T00:35:49.039Z,73.26
2018-01-25T00:36:12.791Z,73.30
2018-01-25T00:36:36.574Z,73.11
2018-01-25T00:37:00.017Z,73.11
2018-01-25T00:37:23.752Z,73.16
2018-01-25T00:37:47.225Z,73.18
2018-01-25T00:38:10.986Z,73.25
2018-01-25T00:38:34.789Z,73.42
2018-01-25T00:38:58.537Z,73.57
2018-01-25T00:39:22.003Z,73.55
2018-01-25T00:39:45.752Z,73.59
2018-01-25T00:40:09.506Z,73.57
2018-01-25T00:40:33.242Z,73.61
2018-01-25T00:40:56.975Z,73.71
2018-01-25T00:41:20.727Z,73.79
2018-01-25T00:41:44.201Z,73.87
2018-01-25T00:42:07.957Z,73.84
2018-01-25T00:42:31.704Z,73.72
2018-01-25T00:42:56.097Z,73.64
2018-01-25T00:43:19.483Z,73.53
2018-01-25T00:43:43.236Z,73.50
2018-01-25T00:44:06.980Z,73.48
2018-01-25T00:44:30.725Z,73.48
2018-01-25T00:44:54.184Z,73.51
2018-01-25T00:45:17.924Z,73.56
2018-01-25T00:45:41.667Z,73.64
2018-01-25T00:46:05.708Z,73.72
2018-01-25T00:46:29.447Z,73.79
2018-01-25T00:46:53.187Z,73.84
2018-01-25T00:47:16.935Z,73.81
2018-01-25T00:47:40.679Z,73.73
2018-01-25T00:48:05.755Z,73.67
2018-01-25T00:48:58.526Z,73.62
2018-01-25T00:49:21.987Z,73.65
2018-01-25T00:49:45.743Z,73.63
2018-01-25T00:50:09.864Z,73.68
2018-01-25T00:50:33.587Z,73.66
2018-01-25T00:50:57.596Z,73.73
2018-01-25T00:51:21.604Z,73.79
2018-01-25T00:51:45.621Z,73.88
2018-01-25T00:52:08.707Z,73.93
2018-01-25T00:52:32.506Z,73.91
2018-01-25T00:52:56.515Z,73.96
2018-01-25T00:53:20.551Z,74.06
2018-01-25T00:53:44.702Z,74.08
2018-01-25T00:54:08.996Z,74.03
2018-01-25T00:54:32.752Z,73.98
2018-01-25T00:54:56.507Z,73.95
2018-01-25T00:55:20.569Z,73.95
2018-01-25T00:55:44.304Z,74.00
2018-01-25T00:56:08.043Z,73.96
2018-01-25T00:56:31.769Z,73.95
2018-01-25T00:56:55.556Z,73.91
2018-01-25T00:57:19.311Z,73.95
2018-01-25T00:57:43.031Z,73.98
2018-01-25T00:58:06.768Z,74.11
2018-01-25T00:58:30.497Z,74.11
2018-01-25T00:58:54.556Z,74.14
2018-01-25T00:59:19.258Z,74.18
2018-01-25T00:59:42.999Z,74.22
2018-01-25T01:00:07.506Z,74.25
2018-01-25T01:00:31.427Z,74.28
2018-01-25T01:00:55.458Z,74.36
2018-01-25T01:01:19.512Z,74.43
2018-01-25T01:01:43.252Z,74.48
2018-01-25T01:02:06.992Z,74.53
2018-01-25T01:02:30.727Z,74.58
2018-01-25T01:02:54.461Z,74.60
2018-01-25T01:03:17.911Z,74.71
2018-01-25T01:03:41.676Z,74.76
2018-01-25T01:04:05.079Z,74.78
2018-01-25T01:04:28.841Z,74.77
2018-01-25T01:04:52.575Z,74.68
2018-01-25T01:05:16.033Z,74.65
2018-01-25T01:05:39.939Z,74.58
2018-01-25T01:06:03.692Z,74.47
2018-01-25T01:06:28.347Z,74.39
2018-01-25T01:06:51.801Z,74.35
2018-01-25T01:07:15.544Z,74.32
2018-01-25T01:07:39.303Z,74.27
2018-01-25T01:08:03.338Z,74.25
2018-01-25T01:08:27.267Z,74.28
2018-01-25T01:08:51.338Z,74.30
2018-01-25T01:09:15.367Z,74.31
2018-01-25T01:09:38.831Z,74.37
2018-01-25T01:10:02.563Z,74.39
2018-01-25T01:10:26.300Z,74.40
2018-01-25T01:10:50.320Z,74.47
2018-01-25T01:11:14.351Z,74.48
2018-01-25T01:11:37.803Z,74.60
2018-01-25T01:12:01.542Z,74.58
2018-01-25T01:12:25.367Z,74.50
2018-01-25T01:12:48.936Z,74.38
2018-01-25T01:13:12.678Z,74.28
2018-01-25T01:13:36.414Z,74.20
2018-01-25T01:14:00.148Z,74.17
2018-01-25T01:14:23.645Z,74.21
2018-01-25T01:14:47.407Z,74.18
2018-01-25T01:15:11.151Z,74.17
2018-01-25T01:15:35.174Z,74.17
2018-01-25T01:15:59.204Z,74.17
2018-01-25T01:16:23.234Z,74.18
2018-01-25T01:16:47.245Z,74.13
2018-01-25T01:17:11.260Z,74.08
2018-01-25T01:17:34.722Z,74.08
2018-01-25T01:17:58.484Z,74.08
2018-01-25T01:18:22.221Z,74.11
2018-01-25T01:18:46.236Z,74.14
2018-01-25T01:19:09.679Z,74.04
2018-01-25T01:19:33.404Z,73.94
2018-01-25T01:19:57.167Z,73.95
2018-01-25T01:20:21.334Z,73.96
2018-01-25T01:20:45.122Z,73.91
2018-01-25T01:21:09.185Z,73.90
2018-01-25T01:21:32.630Z,73.86
2018-01-25T01:21:56.355Z,73.96
2018-01-25T01:22:20.080Z,73.95
2018-01-25T01:22:44.096Z,73.89
2018-01-25T01:23:08.118Z,73.86
2018-01-25T01:23:32.120Z,73.81
2018-01-25T01:23:56.123Z,73.88
2018-01-25T01:24:20.164Z,73.97
2018-01-25T01:24:43.903Z,73.98
2018-01-25T01:25:07.660Z,74.00
2018-01-25T01:25:31.387Z,73.98
2018-01-25T01:25:55.120Z,73.92
2018-01-25T01:26:18.599Z,73.84
2018-01-25T01:26:42.361Z,73.83
2018-01-25T01:27:06.235Z,73.84
2018-01-25T01:27:29.968Z,73.87
2018-01-25T01:27:53.975Z,73.86
2018-01-25T01:28:18.000Z,73.90
2018-01-25T01:28:42.021Z,73.94
2018-01-25T01:29:06.063Z,73.91
2018-01-25T01:29:29.517Z,73.83
2018-01-25T01:29:53.253Z,73.89
2018-01-25T01:30:16.999Z,73.88
2018-01-25T01:30:41.004Z,73.89
2018-01-25T01:31:05.020Z,73.85
2018-01-25T01:31:29.043Z,73.85
2018-01-25T01:31:52.556Z,73.83
2018-01-25T01:32:16.279Z,73.83
2018-01-25T01:32:40.048Z,73.83
2018-01-25T01:33:03.797Z,73.85
2018-01-25T01:33:27.524Z,73.88
2018-01-25T01:33:51.267Z,73.86
2018-01-25T01:34:15.002Z,73.93
2018-01-25T01:34:38.828Z,73.93
2018-01-25T01:35:02.383Z,73.97
2018-01-25T01:35:26.158Z,74.01
2018-01-25T01:35:49.898Z,74.02
2018-01-25T01:36:13.907Z,74.04
2018-01-25T01:36:37.923Z,74.07
2018-01-25T01:37:01.987Z,74.10
2018-01-25T01:37:25.731Z,74.11
2018-01-25T01:37:49.460Z,74.08
2018-01-25T01:38:13.199Z,74.13
2018-01-25T01:38:36.983Z,74.18
2018-01-25T01:39:00.740Z,74.19
2018-01-25T01:39:24.216Z,74.24
2018-01-25T01:39:47.948Z,74.24
2018-01-25T01:40:11.698Z,74.21
2018-01-25T01:40:35.162Z,74.13
2018-01-25T01:40:58.881Z,74.17
2018-01-25T01:41:22.621Z,74.17
2018-01-25T01:41:46.379Z,74.15
2018-01-25T01:42:10.108Z,74.15
2018-01-25T01:42:33.861Z,74.15
2018-01-25T01:42:57.609Z,74.17
2018-01-25T01:43:21.102Z,74.23
2018-01-25T01:43:44.840Z,74.23
2018-01-25T01:44:08.647Z,74.24
2018-01-25T01:44:32.101Z,74.26
2018-01-25T01:44:55.840Z,74.23
2018-01-25T01:45:19.645Z,74.20
2018-01-25T01:45:43.683Z,74.15
2018-01-25T01:46:07.683Z,74.14
2018-01-25T01:46:31.736Z,74.08
2018-01-25T01:46:55.490Z,74.01
2018-01-25T01:47:19.256Z,74.06
2018-01-25T01:47:43.001Z,74.14
2018-01-25T01:48:06.773Z,74.13
2018-01-25T01:48:30.567Z,74.09
2018-01-25T01:48:54.585Z,74.07
2018-01-25T01:49:18.609Z,74.07
2018-01-25T01:49:42.615Z,74.07
2018-01-25T01:50:06.665Z,74.08
2018-01-25T01:50:30.117Z,74.09
2018-01-25T01:50:53.874Z,74.13
2018-01-25T01:51:17.626Z,74.18
2018-01-25T01:51:41.629Z,74.21
2018-01-25T01:52:04.791Z,74.23
2018-01-25T01:52:28.536Z,74.26
2018-01-25T01:52:52.631Z,74.29
2018-01-25T01:53:16.387Z,74.34
2018-01-25T01:53:40.108Z,74.38
2018-01-25T01:54:03.937Z,74.40
2018-01-25T01:54:27.680Z,74.40
2018-01-25T01:54:51.417Z,74.37
2018-01-25T01:55:15.452Z,74.32
2018-01-25T01:55:39.473Z,74.27
2018-01-25T01:56:03.500Z,74.25
2018-01-25T01:56:27.517Z,74.25
2018-01-25T01:56:51.567Z,74.28
2018-01-25T01:57:15.295Z,74.33
2018-01-25T01:57:38.691Z,74.39
2018-01-25T01:58:02.428Z,74.42
2018-01-25T01:58:26.140Z,74.43
2018-01-25T01:58:49.886Z,74.48
2018-01-25T01:59:13.620Z,74.50
2018-01-25T01:59:37.392Z,74.62
2018-01-25T02:00:01.441Z,74.64
2018-01-25T02:00:24.944Z,74.68
2018-01-25T02:00:47.992Z,74.73
2018-01-25T02:01:12.124Z,74.76
2018-01-25T02:01:35.863Z,74.84
2018-01-25T02:01:59.639Z,74.89
2018-01-25T02:02:23.360Z,74.89
2018-01-25T02:02:47.371Z,74.87
2018-01-25T02:03:10.827Z,74.87
2018-01-25T02:03:34.573Z,74.87
2018-01-25T02:03:58.368Z,74.86
2018-01-25T02:04:22.111Z,74.86
2018-01-25T02:04:45.847Z,74.92
2018-01-25T02:05:09.740Z,74.95
2018-01-25T02:05:33.504Z,74.98
2018-01-25T02:05:57.253Z,75.02
2018-01-25T02:06:21.309Z,75.06
2018-01-25T02:06:45.042Z,75.08
2018-01-25T02:07:08.796Z,75.10
2018-01-25T02:07:32.517Z,75.15
2018-01-25T02:07:56.751Z,75.19
2018-01-25T02:08:20.509Z,75.22
2018-01-25T02:08:44.239Z,75.29
2018-01-25T02:09:08.265Z,75.30
2018-01-25T02:09:31.719Z,75.29
2018-01-25T02:09:55.463Z,75.30
2018-01-25T02:10:19.220Z,75.37
2018-01-25T02:10:43.239Z,75.39
2018-01-25T02:11:06.676Z,75.41
2018-01-25T02:11:30.735Z,75.43
2018-01-25T02:11:54.623Z,75.45
2018-01-25T02:12:18.347Z,75.45
2018-01-25T02:12:42.417Z,75.44
2018-01-25T02:13:06.143Z,75.45
2018-01-25T02:13:30.169Z,75.49
2018-01-25T02:13:54.227Z,75.57
2018-01-25T02:14:17.984Z,75.62
2018-01-25T02:14:41.828Z,75.67
2018-01-25T02:15:05.283Z,75.68
2018-01-25T02:15:29.028Z,75.69
2018-01-25T02:15:52.505Z,75.72
2018-01-25T02:16:16.226Z,75.77
2018-01-25T02:16:40.131Z,75.78
2018-01-25T02:17:04.159Z,75.76
2018-01-25T02:17:28.202Z,75.77
2018-01-25T02:17:52.917Z,75.76
2018-01-25T02:18:16.642Z,75.80
2018-01-25T02:18:40.372Z,75.81
2018-01-25T02:19:04.145Z,75.84
2018-01-25T02:19:27.581Z,75.89
2018-01-25T02:19:51.313Z,75.97
2018-01-25T02:20:15.041Z,76.02
2018-01-25T02:20:39.124Z,76.06
2018-01-25T02:21:02.578Z,76.03
2018-01-25T02:21:26.332Z,75.99
2018-01-25T02:21:50.106Z,75.96
2018-01-25T02:22:13.550Z,75.92
2018-01-25T02:22:37.288Z,75.89
2018-01-25T02:23:01.018Z,75.94
2018-01-25T02:23:25.042Z,75.98
2018-01-25T02:23:49.069Z,75.98
2018-01-25T02:24:12.826Z,76.00
2018-01-25T02:24:36.610Z,76.04
2018-01-25T02:25:00.344Z,76.07
2018-01-25T02:25:24.086Z,76.06
2018-01-25T02:25:47.825Z,76.09
2018-01-25T02:26:11.427Z,76.13
2018-01-25T02:26:35.164Z,76.15
2018-01-25T02:26:58.924Z,76.16
2018-01-25T02:27:22.944Z,76.21
2018-01-25T02:27:46.992Z,76.22
2018-01-25T02:28:10.436Z,76.22
2018-01-25T02:28:34.187Z,76.22
2018-01-25T02:28:57.955Z,76.17
2018-01-25T02:29:21.770Z,76.13
2018-01-25T02:29:45.211Z,76.15
2018-01-25T02:30:08.965Z,76.15
2018-01-25T02:30:32.700Z,76.18
2018-01-25T02:30:56.424Z,76.24
2018-01-25T02:31:20.158Z,76.24
2018-01-25T02:31:43.897Z,76.27
2018-01-25T02:32:07.676Z,76.28
2018-01-25T02:32:31.191Z,76.27
2018-01-25T02:32:54.964Z,76.26
2018-01-25T02:33:18.718Z,76.29
2018-01-25T02:33:42.724Z,76.28
2018-01-25T02:34:06.741Z,76.29
2018-01-25T02:34:30.493Z,76.30
2018-01-25T02:34:54.258Z,76.29
2018-01-25T02:35:17.994Z,76.31
2018-01-25T02:35:41.723Z,76.36
2018-01-25T02:36:05.773Z,76.36
2018-01-25T02:36:29.527Z,76.36
2018-01-25T02:36:52.969Z,76.34
2018-01-25T02:37:16.733Z,76.36
2018-01-25T02:37:40.507Z,76.46
2018-01-25T02:38:03.948Z,76.57
2018-01-25T02:38:27.679Z,76.58
2018-01-25T02:38:51.420Z,76.59
2018-01-25T02:39:15.172Z,76.55
2018-01-25T02:39:38.970Z,76.56
2018-01-25T02:40:02.740Z,76.64
2018-01-25T02:40:26.471Z,76.70
2018-01-25T02:40:50.484Z,76.65
2018-01-25T02:41:14.513Z,76.61
2018-01-25T02:41:38.540Z,76.58
2018-01-25T02:42:02.087Z,76.52
2018-01-25T02:42:25.884Z,76.43
2018-01-25T02:42:49.634Z,76.36
2018-01-25T02:43:13.415Z,76.30
2018-01-25T02:43:37.445Z,76.22
2018-01-25T02:44:01.478Z,76.14
2018-01-25T02:44:25.260Z,76.10
2018-01-25T02:44:48.734Z,76.10
2018-01-25T02:45:12.468Z,76.06
2018-01-25T02:45:36.217Z,75.94
2018-01-25T02:45:59.490Z,75.83
2018-01-25T02:46:23.246Z,75.71
2018-01-25T02:46:47.275Z,75.64
2018-01-25T02:47:11.296Z,75.61
2018-01-25T02:47:35.349Z,75.57
2018-01-25T02:47:59.112Z,75.57
2018-01-25T02:48:22.560Z,75.57
2018-01-25T02:48:46.301Z,75.59
2018-01-25T02:49:10.085Z,75.64
2018-01-25T02:49:33.565Z,75.66
2018-01-25T02:49:57.326Z,75.67
2018-01-25T02:50:21.071Z,75.66
2018-01-25T02:50:45.458Z,75.68
2018-01-25T02:51:09.184Z,75.56
2018-01-25T02:51:32.924Z,75.40
2018-01-25T02:51:56.673Z,75.29
2018-01-25T02:52:20.479Z,75.19
2018-01-25T02:52:44.230Z,75.19
2018-01-25T02:53:07.986Z,75.24
2018-01-25T02:53:32.009Z,75.16
2018-01-25T02:53:56.048Z,75.07
2018-01-25T02:54:20.052Z,75.03
2018-01-25T02:54:43.496Z,74.99
2018-01-25T02:55:07.246Z,74.91
2018-01-25T02:55:31.043Z,74.88
2018-01-25T02:55:54.788Z,74.91
2018-01-25T02:56:18.512Z,74.85
2018-01-25T02:56:42.256Z,74.73
2018-01-25T02:57:06.007Z,74.62
2018-01-25T02:57:29.751Z,74.56
2018-01-25T02:57:53.235Z,74.54
2018-01-25T02:58:16.992Z,74.50
2018-01-25T02:58:40.739Z,74.44
2018-01-25T02:59:04.200Z,74.42
2018-01-25T02:59:27.976Z,74.41
2018-01-25T02:59:51.717Z,74.50
2018-01-25T03:00:15.748Z,74.47
2018-01-25T03:00:39.779Z,74.42
2018-01-25T03:01:03.795Z,74.42
2018-01-25T03:01:27.559Z,74.46
2018-01-25T03:01:51.357Z,74.40
2018-01-25T03:02:15.080Z,74.36
2018-01-25T03:02:38.820Z,74.37
2018-01-25T03:03:02.583Z,74.32
2018-01-25T03:03:26.593Z,74.29
2018-01-25T03:03:50.593Z,74.35
2018-01-25T03:04:14.611Z,74.42
2018-01-25T03:04:38.063Z,74.47
2018-01-25T03:05:01.783Z,74.47
2018-01-25T03:05:25.514Z,74.47
2018-01-25T03:05:49.546Z,74.50
2018-01-25T03:06:13.563Z,74.54
2018-01-25T03:06:37.316Z,74.61
2018-01-25T03:07:01.043Z,74.63
2018-01-25T03:07:24.777Z,74.58
2018-01-25T03:07:48.509Z,74.60
2018-01-25T03:08:12.286Z,74.60
2018-01-25T03:08:35.741Z,74.64
2018-01-25T03:08:59.487Z,74.63
2018-01-25T03:09:23.275Z,74.64
2018-01-25T03:09:46.737Z,74.63
2018-01-25T03:10:10.483Z,74.62
2018-01-25T03:10:34.220Z,74.61
2018-01-25T03:10:57.660Z,74.58
2018-01-25T03:11:21.383Z,74.55
2018-01-25T03:11:45.133Z,74.52
2018-01-25T03:12:08.903Z,74.51
2018-01-25T03:12:32.643Z,74.50
2018-01-25T03:12:56.399Z,74.45
2018-01-25T03:13:20.175Z,74.43
2018-01-25T03:13:44.189Z,74.41
2018-01-25T03:14:08.240Z,74.44
2018-01-25T03:14:32.295Z,74.44
2018-01-25T03:14:56.055Z,74.52
2018-01-25T03:15:19.491Z,74.59
2018-01-25T03:15:43.227Z,74.61
2018-01-25T03:16:06.967Z,74.70
2018-01-25T03:16:30.704Z,74.79
2018-01-25T03:16:54.460Z,74.83
2018-01-25T03:17:18.259Z,74.84
2018-01-25T03:17:41.999Z,74.81
2018-01-25T03:18:06.047Z,74.74
2018-01-25T03:18:30.125Z,74.74
2018-01-25T03:18:53.859Z,74.67
2018-01-25T03:19:17.601Z,74.62
2018-01-25T03:19:41.611Z,74.64
2018-01-25T03:20:05.357Z,74.68
2018-01-25T03:20:29.097Z,74.69
2018-01-25T03:20:52.848Z,74.72
2018-01-25T03:21:16.919Z,74.78
2018-01-25T03:21:40.935Z,74.74
2018-01-25T03:22:04.391Z,74.74
2018-01-25T03:22:28.115Z,74.78
2018-01-25T03:22:51.911Z,74.80
2018-01-25T03:23:16.024Z,74.75
2018-01-25T03:23:39.802Z,74.69
2018-01-25T03:24:03.887Z,74.69
2018-01-25T03:24:27.893Z,74.70
2018-01-25T03:24:51.333Z,74.75
2018-01-25T03:25:15.060Z,74.77
2018-01-25T03:25:38.817Z,74.75
2018-01-25T03:26:02.839Z,74.73
2018-01-25T03:26:26.878Z,74.68
2018-01-25T03:26:50.697Z,74.64
2018-01-25T03:27:14.717Z,74.65
2018-01-25T03:27:38.808Z,74.70
2018-01-25T03:28:02.255Z,74.63
2018-01-25T03:28:25.983Z,74.51
2018-01-25T03:28:49.731Z,74.48
2018-01-25T03:29:13.749Z,74.45
2018-01-25T03:29:37.757Z,74.47
2018-01-25T03:30:01.221Z,74.49
2018-01-25T03:30:24.976Z,74.44
2018-01-25T03:30:48.779Z,74.43
2018-01-25T03:31:12.516Z,74.38
2018-01-25T03:31:35.993Z,74.29
2018-01-25T03:31:59.747Z,74.29
2018-01-25T03:32:23.500Z,74.28
2018-01-25T03:32:46.947Z,74.22
2018-01-25T03:33:10.671Z,74.20
2018-01-25T03:33:34.468Z,74.23
2018-01-25T03:33:57.931Z,74.17
2018-01-25T03:34:21.671Z,74.11
2018-01-25T03:34:45.418Z,74.10
2018-01-25T03:35:09.168Z,74.15
2018-01-25T03:35:32.912Z,74.11
2018-01-25T03:35:56.638Z,74.06
2018-01-25T03:36:20.404Z,74.09
2018-01-25T03:36:43.898Z,74.09
2018-01-25T03:37:07.629Z,74.12
2018-01-25T03:37:31.364Z,74.17
2018-01-25T03:37:54.831Z,74.20
2018-01-25T03:38:18.585Z,74.23
2018-01-25T03:38:42.355Z,74.24
2018-01-25T03:39:05.138Z,74.27
2018-01-25T03:39:28.873Z,74.31
2018-01-25T03:39:52.624Z,74.36
2018-01-25T03:40:16.233Z,74.39
2018-01-25T03:40:39.973Z,74.49
2018-01-25T03:41:03.716Z,74.57
2018-01-25T03:41:27.461Z,74.58
2018-01-25T03:41:51.208Z,74.57
2018-01-25T03:42:14.976Z,74.55
2018-01-25T03:42:38.723Z,74.50
2018-01-25T03:43:02.496Z,74.34
2018-01-25T03:43:26.433Z,74.30
2018-01-25T03:43:50.173Z,74.25
2018-01-25T03:44:13.686Z,74.21
2018-01-25T03:44:37.456Z,74.16
2018-01-25T03:45:01.010Z,74.15
2018-01-25T03:45:25.114Z,74.14
2018-01-25T03:45:48.380Z,74.10
2018-01-25T03:46:12.175Z,74.10
2018-01-25T03:46:36.083Z,74.12
2018-01-25T03:46:59.332Z,74.14
2018-01-25T03:47:22.951Z,74.17
2018-01-25T03:47:46.507Z,74.20
2018-01-25T03:48:10.057Z,74.22
2018-01-25T03:48:33.529Z,74.25
2018-01-25T03:48:57.260Z,74.25
2018-01-25T03:49:21.056Z,74.23
2018-01-25T03:49:45.075Z,74.26
2018-01-25T03:50:09.095Z,74.32
2018-01-25T03:50:33.062Z,74.41
2018-01-25T03:50:57.076Z,74.51
2018-01-25T03:51:21.136Z,74.54
2018-01-25T03:51:45.150Z,74.55
2018-01-25T03:52:08.929Z,74.60
2018-01-25T03:52:32.373Z,74.57
2018-01-25T03:52:56.114Z,74.44
2018-01-25T03:53:19.957Z,74.37
2018-01-25T03:53:44.109Z,74.36
2018-01-25T03:54:07.851Z,74.45
2018-01-25T03:54:31.595Z,74.54
2018-01-25T03:54:55.320Z,74.53
2018-01-25T03:55:19.052Z,74.50
2018-01-25T03:55:42.807Z,74.47
2018-01-25T03:56:06.545Z,74.41
2018-01-25T03:56:30.276Z,74.42
2018-01-25T03:56:54.017Z,74.42
2018-01-25T03:57:17.771Z,74.47
2018-01-25T03:57:41.499Z,74.50
2018-01-25T03:58:05.248Z,74.53
2018-01-25T03:58:28.995Z,74.56
2018-01-25T03:58:52.749Z,74.61
2018-01-25T03:59:16.524Z,74.59
2018-01-25T03:59:40.283Z,74.61
2018-01-25T04:00:03.501Z,74.61
2018-01-25T04:00:26.924Z,74.63
2018-01-25T04:00:50.376Z,74.62
2018-01-25T04:01:14.172Z,74.61
2018-01-25T04:01:37.913Z,74.65
2018-01-25T04:02:01.693Z,74.65
2018-01-25T04:02:25.147Z,74.68
2018-01-25T04:02:48.977Z,74.71
2018-01-25T04:03:12.724Z,74.72
2018-01-25T04:03:36.744Z,74.68
2018-01-25T04:04:00.773Z,74.58
2018-01-25T04:04:25.439Z,74.48
2018-01-25T04:04:48.976Z,74.41
2018-01-25T04:05:12.704Z,74.33
2018-01-25T04:05:36.728Z,74.29
2018-01-25T04:06:00.740Z,74.31
2018-01-25T04:06:24.764Z,74.31
2018-01-25T04:06:48.215Z,74.35
2018-01-25T04:07:11.944Z,74.42
2018-01-25T04:07:35.803Z,74.53
2018-01-25T04:07:59.556Z,74.56
2018-01-25T04:08:23.010Z,74.68
2018-01-25T04:08:46.762Z,74.73
2018-01-25T04:09:10.504Z,74.71
2018-01-25T04:09:33.952Z,74.66
2018-01-25T04:09:57.702Z,74.54
2018-01-25T04:10:21.516Z,74.49
2018-01-25T04:10:45.528Z,74.40
2018-01-25T04:11:09.543Z,74.39
2018-01-25T04:11:33.580Z,74.35
2018-01-25T04:11:57.592Z,74.41
2018-01-25T04:12:21.629Z,74.42
2018-01-25T04:12:45.383Z,74.44
2018-01-25T04:13:09.116Z,74.48
2018-01-25T04:13:32.866Z,74.51
2018-01-25T04:13:56.600Z,74.52
2018-01-25T04:14:20.344Z,74.61
2018-01-25T04:14:44.076Z,74.65
2018-01-25T04:15:07.652Z,74.68
2018-01-25T04:15:31.423Z,74.75
2018-01-25T04:15:55.468Z,74.76
2018-01-25T04:16:19.481Z,74.77
2018-01-25T04:16:43.496Z,74.70
2018-01-25T04:17:07.536Z,74.66
2018-01-25T04:17:31.302Z,74.70
2018-01-25T04:17:55.032Z,74.72
2018-01-25T04:18:18.769Z,74.74
2018-01-25T04:18:42.508Z,74.72
2018-01-25T04:19:06.260Z,74.78
2018-01-25T04:19:29.995Z,74.74
2018-01-25T04:19:53.756Z,74.79
2018-01-25T04:20:17.546Z,74.86
2018-01-25T04:20:41.322Z,74.92
2018-01-25T04:21:05.375Z,74.99
2018-01-25T04:21:29.385Z,75.09
2018-01-25T04:21:53.410Z,75.12
2018-01-25T04:22:17.509Z,75.18
2018-01-25T04:22:41.310Z,75.22
2018-01-25T04:23:05.332Z,75.29
2018-01-25T04:23:29.344Z,75.29
2018-01-25T04:23:53.359Z,75.31
2018-01-25T04:24:17.377Z,75.29
2018-01-25T04:24:40.828Z,75.30
2018-01-25T04:25:04.571Z,75.26
2018-01-25T04:25:28.319Z,75.22
2018-01-25T04:25:52.157Z,75.19
2018-01-25T04:26:15.591Z,75.12
2018-01-25T04:26:39.324Z,75.13
2018-01-25T04:27:03.063Z,75.15
2018-01-25T04:27:26.830Z,75.20
2018-01-25T04:27:50.553Z,75.33
2018-01-25T04:28:14.276Z,75.35
2018-01-25T04:28:38.023Z,75.39
2018-01-25T04:29:02.369Z,75.41
2018-01-25T04:29:25.804Z,75.40
2018-01-25T04:29:49.543Z,75.38
2018-01-25T04:30:13.328Z,75.39
2018-01-25T04:30:37.087Z,75.38
2018-01-25T04:31:01.098Z,75.36
2018-01-25T04:31:25.196Z,75.38
2018-01-25T04:31:48.636Z,75.45
2018-01-25T04:32:12.376Z,75.49
2018-01-25T04:32:36.131Z,75.51
2018-01-25T04:32:59.563Z,75.57
2018-01-25T04:33:23.306Z,75.67
2018-01-25T04:33:47.094Z,75.73
2018-01-25T04:34:11.126Z,75.83
2018-01-25T04:34:34.887Z,75.87
2018-01-25T04:34:58.359Z,75.88
2018-01-25T04:35:22.084Z,75.89
2018-01-25T04:35:45.848Z,75.93
2018-01-25T04:36:09.584Z,75.98
2018-01-25T04:36:33.315Z,76.04
2018-01-25T04:36:57.055Z,76.06
2018-01-25T04:37:20.794Z,76.00
2018-01-25T04:37:44.533Z,75.88
2018-01-25T04:38:08.260Z,75.83
2018-01-25T04:38:32.044Z,75.82
2018-01-25T04:38:55.801Z,75.74
2018-01-25T04:39:19.823Z,75.67
2018-01-25T04:39:43.871Z,75.66
2018-01-25T04:40:07.882Z,75.66
2018-01-25T04:40:31.912Z,75.62
2018-01-25T04:40:55.475Z,75.60
2018-01-25T04:41:19.213Z,75.59
2018-01-25T04:41:42.963Z,75.58
2018-01-25T04:42:06.760Z,75.54
2018-01-25T04:42:30.593Z,75.60
2018-01-25T04:42:54.125Z,75.64
2018-01-25T04:43:17.851Z,75.58
2018-01-25T04:43:41.631Z,75.37
2018-01-25T04:44:05.129Z,75.27
2018-01-25T04:44:28.870Z,75.15
2018-01-25T04:44:52.652Z,75.02
2018-01-25T04:45:16.769Z,74.99
2018-01-25T04:45:40.613Z,75.01
2018-01-25T04:46:04.672Z,75.02
2018-01-25T04:46:28.705Z,75.04
2018-01-25T04:46:52.160Z,75.06
2018-01-25T04:47:15.711Z,75.02
2018-01-25T04:47:39.496Z,74.96
2018-01-25T04:48:02.974Z,74.89
2018-01-25T04:48:26.728Z,74.86
2018-01-25T04:48:50.508Z,74.80
2018-01-25T04:49:14.523Z,74.78
2018-01-25T04:49:38.626Z,74.75
2018-01-25T04:50:02.389Z,74.77
2018-01-25T04:50:25.833Z,74.77
2018-01-25T04:50:49.559Z,74.81
2018-01-25T04:51:13.356Z,74.87
2018-01-25T04:51:36.871Z,74.97
2018-01-25T04:52:00.623Z,75.10
2018-01-25T04:52:24.436Z,74.96
2018-01-25T04:52:48.452Z,74.81
2018-01-25T04:53:12.472Z,74.69
2018-01-25T04:53:36.483Z,74.56
2018-01-25T04:54:00.283Z,74.45
2018-01-25T04:54:23.745Z,74.32
2018-01-25T04:54:47.495Z,74.26
2018-01-25T04:55:11.259Z,74.23
2018-01-25T04:55:34.703Z,74.27
2018-01-25T04:55:58.508Z,74.32
2018-01-25T04:56:22.276Z,74.26
2018-01-25T04:56:46.339Z,74.19
2018-01-25T04:57:10.195Z,74.16
2018-01-25T04:57:34.228Z,74.13
2018-01-25T04:57:58.256Z,74.16
2018-01-25T04:58:22.288Z,74.16
2018-01-25T04:58:46.298Z,74.12
2018-01-25T04:59:10.044Z,74.18
2018-01-25T04:59:33.792Z,74.20
2018-01-25T04:59:57.522Z,74.20
2018-01-25T05:00:21.248Z,74.19
2018-01-25T05:00:44.663Z,74.25
2018-01-25T05:01:08.436Z,74.26
2018-01-25T05:01:32.204Z,74.30
2018-01-25T05:01:55.975Z,74.32
2018-01-25T05:02:19.760Z,74.35
2018-01-25T05:02:43.522Z,74.41
2018-01-25T05:03:07.273Z,74.47
2018-01-25T05:03:31.016Z,74.37
2018-01-25T05:03:55.042Z,74.28
2018-01-25T05:04:19.100Z,74.22
2018-01-25T05:04:42.851Z,74.12
2018-01-25T05:05:06.592Z,74.03
2018-01-25T05:05:30.332Z,73.99
2018-01-25T05:05:54.084Z,73.96
2018-01-25T05:06:17.841Z,73.95
2018-01-25T05:06:41.310Z,73.86